aviador You're here:

YCBB Decoded Metar

in
Report Time2018-01-16 20:00:00
UTC Time2018-01-16 21:06:22
Flight Rules unknown UNKNOWN
Wind070° at 08 kt
W.Decomp.*RWY 11: 6.1 kt HW 5.1 kt LCW
RWY 01: 4.0 kt HW 6.9 kt RCW
W.Rank070° ranks 13
Current wind is above 070° avg. (7.7)
VisibilityN/A
Phenomena:N/A
Clouds:N/A
Expected CloudBase > 2,000 ft AGL from Temp-Dew spread
CeilingNone
Temp13°C
Dew Point08°C (72% RH)
AAT9.7°C
QNH1019 hPa
Raw Report
METAR YCBB 162000Z AUTO 07008KT //// // ////// 13/08 Q1019=

Extra information for YCBB:More info

Social comments